Time;durP1;ratioP1;P1;durP2;ratioP2;P2;SDS_P1;SDS_P2;PMS_P1;PMS_P2;Temp;Humidity;BMP_temperature;BMP_pressure;BME280_temperature;BME280_humidity;BME280_pressure;Samples;Min_cycle;Max_cycle;Signal;HPM_P1;HPM_P2
2022/08/19 00:00:33;;;;;;;19.87;16.57;;;;;;;22.87;93.06;99923.47;5088648;28;20481;-71
2022/08/19 00:03:00;;;;;;;22.10;17.27;;;;;;;22.86;93.65;99916.25;5080914;28;21401;-71
2022/08/19 00:05:27;;;;;;;19.57;17.33;;;;;;;22.87;93.68;99920.72;5088913;28;20481;-71
2022/08/19 00:07:53;;;;;;;20.50;17.77;;;;;;;22.85;93.65;99931.88;5087920;28;20486;-70
2022/08/19 00:10:22;;;;;;;21.57;16.60;;;;;;;22.85;93.88;99934.59;5087996;28;20553;-71
2022/08/19 00:12:49;;;;;;;18.10;16.20;;;;;;;22.89;93.23;99932.41;5092406;28;20446;-71
2022/08/19 00:15:18;;;;;;;21.83;16.70;;;;;;;22.85;94.03;99928.25;5093782;28;20857;-71
2022/08/19 00:17:45;;;;;;;20.50;17.67;;;;;;;22.84;93.77;99921.91;5087248;28;20477;-70
2022/08/19 00:20:16;;;;;;;19.43;16.03;;;;;;;22.83;94.37;99917.44;5089534;28;20430;-70
2022/08/19 00:22:43;;;;;;;18.10;15.97;;;;;;;22.78;94.66;99918.94;5096807;28;20419;-70
2022/08/19 00:25:10;;;;;;;20.13;17.47;;;;;;;22.79;94.90;99910.53;5096435;28;20457;-70
2022/08/19 00:27:38;;;;;;;22.23;17.37;;;;;;;22.74;95.54;99909.31;5089604;28;20478;-69
2022/08/19 00:30:06;;;;;;;18.67;15.80;;;;;;;22.74;95.42;99903.81;5078099;28;20457;-69
2022/08/19 00:32:34;;;;;;;18.97;16.93;;;;;;;22.77;95.44;99898.00;5082416;28;20446;-69
2022/08/19 00:35:00;;;;;;;20.33;17.13;;;;;;;22.80;94.50;99901.28;5082329;28;20461;-70
2022/08/19 00:37:27;;;;;;;19.17;16.20;;;;;;;22.79;95.04;99906.94;5084475;28;20450;-70
2022/08/19 00:39:55;;;;;;;17.97;15.83;;;;;;;22.80;94.99;99900.44;5087141;28;20454;-70
2022/08/19 00:42:22;;;;;;;18.87;16.87;;;;;;;22.79;95.28;99893.22;5085409;28;20478;-71
2022/08/19 00:44:51;;;;;;;19.57;17.00;;;;;;;22.79;95.33;99893.22;5084146;28;20457;-70
2022/08/19 00:47:18;;;;;;;18.97;16.97;;;;;;;22.81;94.75;99893.91;5080702;28;20486;-71
2022/08/19 00:49:50;;;;;;;18.50;16.17;;;;;;;22.80;94.94;99889.47;5091360;28;20450;-71
2022/08/19 00:52:21;;;;;;;18.73;16.73;;;;;;;22.76;95.18;99896.28;5092601;28;20522;-72
2022/08/19 00:54:49;;;;;;;18.13;15.97;;;;;;;22.79;95.09;99894.06;5082166;28;20478;-70
2022/08/19 00:57:19;;;;;;;19.20;15.97;;;;;;;22.86;94.30;99892.41;5078481;28;20521;-70
2022/08/19 00:59:52;;;;;;;18.80;16.03;;;;;;;22.84;94.22;99875.25;5088762;28;20533;-71
2022/08/19 01:02:20;;;;;;;19.37;16.70;;;;;;;22.81;94.39;99869.22;5090039;28;20423;-69
2022/08/19 01:04:47;;;;;;;17.67;15.97;;;;;;;22.79;94.86;99874.00;5098173;28;20452;-71
2022/08/19 01:07:14;;;;;;;20.33;17.03;;;;;;;22.72;95.30;99862.78;5079708;28;20487;-71
2022/08/19 01:09:41;;;;;;;20.47;16.90;;;;;;;22.76;95.44;99863.34;5088290;28;20816;-69
2022/08/19 01:12:09;;;;;;;22.63;16.43;;;;;;;22.71;95.17;99858.34;5096516;28;20438;-72
2022/08/19 01:14:37;;;;;;;18.63;15.47;;;;;;;22.68;95.87;99862.28;5088179;28;20537;-70
2022/08/19 01:17:05;;;;;;;17.97;15.93;;;;;;;22.67;96.12;99871.50;5086512;28;20520;-71
2022/08/19 01:19:38;;;;;;;17.90;15.97;;;;;;;22.65;96.40;99868.06;5087389;28;20441;-71
2022/08/19 01:22:12;;;;;;;19.80;16.40;;;;;;;22.67;96.84;99871.50;5097429;28;20509;-70
2022/08/19 01:24:40;;;;;;;16.27;14.67;;;;;;;22.72;95.93;99870.19;5090964;28;20538;-71
2022/08/19 01:27:07;;;;;;;16.17;14.43;;;;;;;22.77;95.40;99876.91;5092826;28;20460;-71
2022/08/19 01:29:34;;;;;;;20.07;16.00;;;;;;;22.74;95.33;99865.38;5081778;28;20951;-71
2022/08/19 01:32:02;;;;;;;18.00;14.37;;;;;;;22.76;95.18;99868.84;5089963;28;20970;-70
2022/08/19 01:34:28;;;;;;;16.97;14.67;;;;;;;22.75;94.96;99867.97;5088047;28;20434;-70
2022/08/19 01:36:55;;;;;;;16.07;13.90;;;;;;;22.77;94.33;99856.81;5088909;28;20568;-71
2022/08/19 01:39:23;;;;;;;17.00;15.20;;;;;;;22.73;95.04;99860.94;5090829;28;20807;-71
2022/08/19 01:41:54;;;;;;;16.33;14.30;;;;;;;22.76;94.95;99857.84;5099321;28;21018;-70
2022/08/19 01:44:23;;;;;;;17.10;14.60;;;;;;;22.74;95.21;99859.91;5088165;28;20457;-69
2022/08/19 01:46:52;;;;;;;18.43;14.30;;;;;;;22.72;95.27;99862.78;5081127;28;20509;-70
2022/08/19 01:49:21;;;;;;;16.57;14.07;;;;;;;22.76;94.93;99869.69;5075384;28;21023;-71
2022/08/19 01:51:49;;;;;;;15.93;14.20;;;;;;;22.80;95.17;99865.59;5086011;28;20458;-70
2022/08/19 01:54:17;;;;;;;15.00;13.40;;;;;;;22.82;93.52;99868.19;5087154;28;20438;-70
2022/08/19 01:56:44;;;;;;;15.87;14.20;;;;;;;22.82;93.42;99863.56;5095410;28;20996;-70
2022/08/19 01:59:17;;;;;;;16.50;14.23;;;;;;;22.80;93.95;99864.75;5083069;28;20464;-70
2022/08/19 02:01:43;;;;;;;15.67;12.93;;;;;;;22.80;93.95;99873.84;5072836;28;20454;-70
2022/08/19 02:04:10;;;;;;;16.57;13.67;;;;;;;22.74;94.65;99874.47;5079782;28;20459;-69
2022/08/19 02:06:37;;;;;;;15.17;13.30;;;;;;;22.73;95.18;99875.50;5082860;28;20462;-69
2022/08/19 02:09:07;;;;;;;16.63;13.50;;;;;;;22.82;93.96;99879.19;5090545;28;20478;-72
2022/08/19 02:11:37;;;;;;;14.20;12.80;;;;;;;22.77;94.24;99881.53;5094561;28;20426;-71
2022/08/19 02:14:06;;;;;;;15.37;13.77;;;;;;;22.77;93.93;99870.53;5089303;28;20492;-71
2022/08/19 02:16:34;;;;;;;15.87;14.17;;;;;;;22.75;94.28;99873.47;5085086;28;20840;-70
2022/08/19 02:19:01;;;;;;;16.67;13.63;;;;;;;22.75;95.27;99875.34;5086030;28;20597;-71
2022/08/19 02:21:29;;;;;;;16.80;13.60;;;;;;;22.73;95.17;99888.38;5091828;28;20433;-71
2022/08/19 02:23:56;;;;;;;15.83;13.37;;;;;;;22.73;95.48;99891.97;5099091;28;20445;-70
2022/08/19 02:26:25;;;;;;;15.40;13.10;;;;;;;22.78;95.34;99894.25;5098185;28;20995;-72
2022/08/19 02:28:51;;;;;;;16.30;12.47;;;;;;;22.74;95.97;99892.84;5096969;28;20524;-72
2022/08/19 02:31:21;;;;;;;14.40;12.80;;;;;;;22.75;95.72;99897.28;5088526;28;20542;-71
2022/08/19 02:33:50;;;;;;;13.43;12.20;;;;;;;22.71;97.01;99899.50;5090110;28;20450;-70
2022/08/19 02:36:17;;;;;;;14.27;12.20;;;;;;;22.72;96.89;99900.38;5096266;28;20466;-71
2022/08/19 02:38:45;;;;;;;13.77;12.40;;;;;;;22.74;96.79;99892.84;5102160;28;20440;-71
2022/08/19 02:41:15;;;;;;;13.70;12.17;;;;;;;22.74;96.88;99890.94;5108729;28;20466;-69
2022/08/19 02:43:42;;;;;;;14.10;12.70;;;;;;;22.76;96.97;99883.41;5081177;28;20446;-69
2022/08/19 02:46:14;;;;;;;16.00;13.40;;;;;;;22.73;97.94;99891.97;5083052;28;20464;-69
2022/08/19 02:48:41;;;;;;;14.20;12.67;;;;;;;22.72;98.02;99883.91;5100953;28;20501;-68
2022/08/19 02:51:09;;;;;;;14.87;11.97;;;;;;;22.65;98.91;99887.28;5102838;28;20470;-69
2022/08/19 02:53:36;;;;;;;13.90;12.50;;;;;;;22.66;98.63;99886.28;5098961;28;20530;-70
2022/08/19 02:56:08;;;;;;;13.70;12.30;;;;;;;22.62;99.52;99901.34;5090697;28;20504;-70
2022/08/19 02:58:35;;;;;;;13.50;12.10;;;;;;;22.60;99.99;99895.13;5077792;28;20527;-69
2022/08/19 03:01:02;;;;;;;14.80;13.10;;;;;;;22.56;100.00;99901.09;5090004;28;20544;-70
2022/08/19 03:03:29;;;;;;;14.90;11.70;;;;;;;22.55;100.00;99899.41;5086039;28;20477;-70
2022/08/19 03:06:07;;;;;;;16.03;11.20;;;;;;;22.52;100.00;99899.69;5087081;28;20485;-71
2022/08/19 03:08:35;;;;;;;13.47;12.13;;;;;;;22.48;100.00;99894.53;5089162;28;20507;-70
2022/08/19 03:11:02;;;;;;;14.83;12.43;;;;;;;22.46;100.00;99895.72;5093176;28;20434;-70
2022/08/19 03:13:28;;;;;;;12.43;11.13;;;;;;;22.46;100.00;99901.22;5081251;28;20442;-70
2022/08/19 03:15:55;;;;;;;12.60;11.30;;;;;;;22.48;100.00;99894.53;5088172;28;20543;-71
2022/08/19 03:18:22;;;;;;;16.33;11.37;;;;;;;22.49;100.00;99909.09;5092285;28;20530;-70
2022/08/19 03:20:54;;;;;;;13.50;11.33;;;;;;;22.47;100.00;99908.41;5096016;28;20434;-70
2022/08/19 03:23:21;;;;;;;14.80;12.27;;;;;;;22.47;100.00;99906.50;5102303;28;20422;-71
2022/08/19 03:25:51;;;;;;;12.40;11.10;;;;;;;22.42;100.00;99903.38;5090947;28;20485;-70
2022/08/19 03:28:19;;;;;;;14.00;12.30;;;;;;;22.38;100.00;99906.59;5096123;28;20482;-70
2022/08/19 03:30:57;;;;;;;13.90;11.80;;;;;;;22.39;100.00;99914.69;5086954;28;20512;-70
2022/08/19 03:33:24;;;;;;;14.93;12.00;;;;;;;22.35;100.00;99926.13;5095113;28;20537;-70
2022/08/19 03:36:01;;;;;;;13.50;12.10;;;;;;;22.31;100.00;99922.84;5089017;28;20479;-71
2022/08/19 03:38:27;;;;;;;13.87;12.47;;;;;;;22.25;100.00;99915.22;5096346;28;20806;-71
2022/08/19 03:40:55;;;;;;;14.63;13.13;;;;;;;22.22;100.00;99910.91;5096913;28;20857;-70
2022/08/19 03:43:22;;;;;;;15.53;12.67;;;;;;;22.18;100.00;99901.28;5096611;28;20521;-69
2022/08/19 03:45:49;;;;;;;14.70;12.70;;;;;;;22.22;100.00;99912.81;5083209;28;20488;-72
2022/08/19 03:48:16;;;;;;;15.80;14.17;;;;;;;22.20;100.00;99912.91;5087333;28;20583;-72
2022/08/19 03:50:43;;;;;;;14.70;12.90;;;;;;;22.25;100.00;99909.75;5096755;28;20446;-70
2022/08/19 03:53:10;;;;;;;14.93;13.33;;;;;;;22.19;100.00;99905.72;5093310;28;20455;-70
2022/08/19 03:55:40;;;;;;;18.77;13.90;;;;;;;22.15;100.00;99912.53;5086540;28;20450;-70
2022/08/19 03:58:08;;;;;;;14.67;13.13;;;;;;;22.15;100.00;99911.69;5091363;28;20436;-69
2022/08/19 04:00:35;;;;;;;14.60;12.77;;;;;;;22.10;100.00;99914.88;5077515;28;20454;-71
2022/08/19 04:03:02;;;;;;;15.83;14.13;;;;;;;22.10;100.00;99911.28;5082525;28;20544;-69
2022/08/19 04:05:29;;;;;;;15.13;12.80;;;;;;;22.10;100.00;99909.41;5094348;28;20533;-70
2022/08/19 04:07:56;;;;;;;17.70;12.50;;;;;;;22.14;100.00;99918.16;5094764;28;20438;-69
2022/08/19 04:10:23;;;;;;;15.50;12.90;;;;;;;22.19;100.00;99922.19;5094354;28;20480;-70
2022/08/19 04:12:50;;;;;;;12.93;11.60;;;;;;;22.20;100.00;99928.53;5092007;28;20577;-71
2022/08/19 04:15:18;;;;;;;12.13;10.93;;;;;;;22.24;100.00;99924.47;5084409;28;21492;-71
2022/08/19 04:17:45;;;;;;;15.60;12.40;;;;;;;22.21;100.00;99919.28;5076427;22;20499;-70
2022/08/19 04:20:12;;;;;;;13.73;11.87;;;;;;;22.15;100.00;99929.00;5053839;28;20542;-70
2022/08/19 04:22:38;;;;;;;19.27;13.20;;;;;;;22.11;100.00;99921.22;5054215;28;20551;-70
2022/08/19 04:25:05;;;;;;;14.90;12.13;;;;;;;22.04;100.00;99921.84;5055652;28;20447;-69
2022/08/19 04:27:33;;;;;;;13.73;12.33;;;;;;;22.03;100.00;99911.06;5055331;28;20456;-69
2022/08/19 04:29:59;;;;;;;13.50;12.10;;;;;;;22.02;100.00;99917.53;5075738;28;20573;-70
2022/08/19 04:32:27;;;;;;;14.07;12.67;;;;;;;21.94;100.00;99920.22;5074234;28;20465;-71
2022/08/19 04:34:58;;;;;;;13.47;12.03;;;;;;;21.88;100.00;99915.34;5073844;28;20458;-68
2022/08/19 04:37:26;;;;;;;20.30;17.30;;;;;;;21.84;100.00;99912.03;5074507;28;20454;-70
2022/08/19 04:42:39;;;;;;;16.53;14.63;;;;;;;21.81;100.00;99920.56;5075101;28;20406;-69
2022/08/19 04:45:09;;;;;;;17.33;14.50;;;;;;;21.79;100.00;99928.94;5074960;28;20463;-69
2022/08/19 04:47:37;;;;;;;14.20;12.70;;;;;;;21.79;100.00;99925.34;5055491;28;20555;-69
2022/08/19 04:50:05;;;;;;;13.13;11.83;;;;;;;21.82;100.00;99931.38;5073632;28;20489;-70
2022/08/19 04:52:31;;;;;;;15.47;12.23;;;;;;;21.85;100.00;99927.47;5075170;28;20437;-69
2022/08/19 04:54:58;;;;;;;13.13;11.33;;;;;;;21.91;100.00;99939.69;5075302;28;20903;-69
2022/08/19 04:57:26;;;;;;;13.37;11.70;;;;;;;22.00;100.00;99938.75;5074952;28;20580;-69
2022/08/19 04:59:55;;;;;;;12.67;11.37;;;;;;;22.04;100.00;99945.66;5073397;28;21021;-69
2022/08/19 05:02:24;;;;;;;12.93;11.63;;;;;;;22.11;100.00;99944.03;5072141;28;20465;-69
2022/08/19 05:05:00;;;;;;;13.60;12.20;;;;;;;22.16;100.00;99938.97;5074277;28;20450;-70
2022/08/19 05:07:27;;;;;;;13.00;11.67;;;;;;;22.22;100.00;99940.22;5072850;28;20561;-70
2022/08/19 05:09:54;;;;;;;16.30;12.40;;;;;;;22.32;100.00;99942.88;5074562;28;20481;-69
2022/08/19 05:12:20;;;;;;;12.07;10.20;;;;;;;22.33;100.00;99939.16;5074365;28;20465;-70
2022/08/19 05:14:49;;;;;;;13.10;11.40;;;;;;;22.37;100.00;99935.94;5075256;28;20441;-69
2022/08/19 05:17:16;;;;;;;14.10;11.83;;;;;;;22.43;100.00;99931.69;5072705;28;20482;-70
2022/08/19 05:22:34;;;;;;;15.57;12.13;;;;;;;22.59;100.00;99951.06;5078137;28;20844;-72
2022/08/19 05:25:05;;;;;;;12.03;10.73;;;;;;;22.63;100.00;99946.94;5072813;28;20435;-70
2022/08/19 05:27:31;;;;;;;12.27;10.80;;;;;;;22.74;100.00;99945.84;5064235;28;20479;-69
2022/08/19 05:29:58;;;;;;;12.37;11.07;;;;;;;22.85;100.00;99940.09;5073291;28;20482;-70
2022/08/19 05:32:25;;;;;;;11.40;10.20;;;;;;;22.88;100.00;99934.31;5073809;28;20459;-70
2022/08/19 05:34:52;;;;;;;14.70;11.10;;;;;;;22.95;100.00;99937.28;5087542;28;20446;-70
2022/08/19 05:37:18;;;;;;;11.40;10.20;;;;;;;23.09;98.69;99941.34;5070820;28;20467;-69
2022/08/19 05:39:46;;;;;;;12.27;10.57;;;;;;;23.15;98.18;99951.66;5083323;28;20423;-71
2022/08/19 05:42:13;;;;;;;12.03;9.93;;;;;;;23.26;97.54;99953.28;5076460;28;20443;-70
2022/08/19 05:44:43;;;;;;;10.90;9.53;;;;;;;23.35;96.61;99949.56;5074975;28;20435;-69
2022/08/19 05:47:12;;;;;;;11.73;9.50;;;;;;;23.41;95.92;99956.31;5075207;28;20451;-69
2022/08/19 05:49:38;;;;;;;10.33;9.13;;;;;;;23.43;95.28;99954.25;5072431;28;20483;-69
2022/08/19 05:52:07;;;;;;;13.77;10.27;;;;;;;23.42;95.27;99956.13;5074999;28;20445;-69
2022/08/19 05:54:35;;;;;;;12.70;9.27;;;;;;;23.56;93.95;99960.13;5074405;28;20517;-70
2022/08/19 05:57:03;;;;;;;11.33;10.20;;;;;;;23.67;93.31;99962.59;5074449;28;20462;-70
2022/08/19 05:59:30;;;;;;;13.47;9.73;;;;;;;23.65;92.82;99963.78;5073623;28;20458;-68
2022/08/19 06:01:57;;;;;;;12.97;8.97;;;;;;;23.70;92.50;99967.78;5074366;28;20439;-69
2022/08/19 06:04:25;;;;;;;12.03;9.47;;;;;;;23.84;90.97;99969.06;5073677;28;20465;-68
2022/08/19 06:06:53;;;;;;;9.23;8.30;;;;;;;23.89;89.04;99971.31;5073940;28;20479;-69
2022/08/19 06:09:21;;;;;;;10.03;8.33;;;;;;;23.86;89.19;99972.50;5073790;28;20482;-69
2022/08/19 06:11:52;;;;;;;9.97;8.30;;;;;;;24.00;87.74;99976.50;5073993;28;20457;-69
2022/08/19 06:14:23;;;;;;;9.20;8.30;;;;;;;24.07;86.84;99976.72;5074066;28;20795;-70
2022/08/19 06:16:51;;;;;;;9.10;8.20;;;;;;;24.18;86.18;99981.03;5074186;28;20474;-69
2022/08/19 06:19:19;;;;;;;9.47;7.10;;;;;;;24.24;84.56;99980.34;5073860;28;20454;-69
2022/08/19 06:21:48;;;;;;;8.60;7.70;;;;;;;24.35;83.53;99989.16;5074876;28;20465;-68
2022/08/19 06:24:17;;;;;;;7.70;7.00;;;;;;;24.45;82.33;99994.50;5073944;28;20463;-69
2022/08/19 06:26:47;;;;;;;8.07;7.27;;;;;;;24.58;81.60;99994.06;5074233;28;20462;-69
2022/08/19 06:29:16;;;;;;;9.70;7.17;;;;;;;24.66;81.00;99999.56;5072931;28;20489;-69
2022/08/19 06:31:46;;;;;;;9.13;7.10;;;;;;;24.78;80.16;100002.81;5074435;28;20464;-69
2022/08/19 06:34:13;;;;;;;8.20;7.27;;;;;;;24.89;78.87;100007.13;5075470;28;20431;-69
2022/08/19 06:36:43;;;;;;;7.40;6.70;;;;;;;25.04;77.79;100008.16;5072341;28;20481;-70
2022/08/19 06:39:11;;;;;;;7.93;7.00;;;;;;;25.14;77.27;100017.09;5071584;28;20482;-70
2022/08/19 06:41:40;;;;;;;7.43;6.60;;;;;;;25.29;76.06;100020.06;5074695;28;20431;-70
2022/08/19 06:44:07;;;;;;;8.70;6.33;;;;;;;25.36;75.45;100022.97;5070878;28;20447;-70
2022/08/19 06:46:33;;;;;;;10.20;6.43;;;;;;;25.33;75.18;100026.09;5072856;28;20458;-70
2022/08/19 06:49:01;;;;;;;11.40;7.33;;;;;;;25.54;73.91;100017.25;5073758;28;20482;-71
2022/08/19 06:51:28;;;;;;;7.83;5.70;;;;;;;25.61;74.03;100011.91;5072650;28;20484;-70
2022/08/19 06:53:56;;;;;;;6.77;6.07;;;;;;;25.67;72.78;100017.56;5072349;28;20454;-70
2022/08/19 06:56:30;;;;;;;7.50;5.80;;;;;;;25.70;72.17;100016.34;5083143;28;20483;-69
2022/08/19 06:58:57;;;;;;;8.60;5.70;;;;;;;25.74;71.82;100031.53;5076601;28;20456;-69
2022/08/19 07:01:23;;;;;;;7.33;5.37;;;;;;;25.94;71.02;100035.63;5074064;28;20935;-71
2022/08/19 07:03:50;;;;;;;6.20;5.57;;;;;;;26.16;69.45;100033.09;5076760;28;20439;-72
2022/08/19 07:06:19;;;;;;;6.23;5.60;;;;;;;26.39;69.86;100033.16;5076502;28;20469;-70
2022/08/19 07:08:47;;;;;;;10.70;5.30;;;;;;;26.47;66.87;100035.88;5075442;28;20481;-69
2022/08/19 07:11:17;;;;;;;6.80;5.83;;;;;;;26.44;66.33;100039.00;5076533;28;20974;-70
2022/08/19 07:13:44;;;;;;;8.43;6.17;;;;;;;26.56;64.48;100042.22;5074404;28;20458;-68
2022/08/19 07:16:14;;;;;;;8.47;5.80;;;;;;;26.63;64.47;100041.31;5076614;28;20553;-67
2022/08/19 07:18:41;;;;;;;7.90;5.80;;;;;;;26.71;63.87;100045.09;5075346;28;20528;-68
2022/08/19 07:21:10;;;;;;;7.20;5.93;;;;;;;26.82;63.12;100045.50;5075547;28;20516;-68
2022/08/19 07:23:38;;;;;;;8.17;5.07;;;;;;;27.09;61.92;100056.16;5068508;28;20431;-69
2022/08/19 07:26:06;;;;;;;5.50;5.00;;;;;;;27.15;60.92;100050.75;5075261;28;20496;-67
2022/08/19 07:28:33;;;;;;;10.03;5.60;;;;;;;27.42;60.78;100054.00;5076551;28;20990;-68
2022/08/19 07:31:01;;;;;;;5.70;5.10;;;;;;;27.78;59.57;100043.09;5077982;28;20489;-69
2022/08/19 07:33:29;;;;;;;7.70;4.93;;;;;;;28.13;58.32;100042.53;5060792;28;20458;-69
2022/08/19 07:35:56;;;;;;;5.70;5.13;;;;;;;28.38;56.56;100032.88;5077437;28;20472;-69
2022/08/19 07:38:22;;;;;;;27.07;24.67;;;;;;;28.42;56.22;100036.06;5075770;28;20465;-73
2022/08/19 07:40:51;;;;;;;27.63;24.63;;;;;;;28.61;55.47;100031.88;5076169;28;20431;-69
2022/08/19 07:43:25;;;;;;;28.37;25.47;;;;;;;28.94;54.24;100032.19;5075513;28;20495;-70
2022/08/19 07:45:51;;;;;;;8.77;7.67;;;;;;;29.46;52.29;100044.84;5076343;28;20441;-72
2022/08/19 07:48:18;;;;;;;6.10;5.60;;;;;;;29.77;50.46;100045.53;5076875;28;20463;-70
2022/08/19 07:50:45;;;;;;;5.20;4.57;;;;;;;30.09;49.68;100044.84;5076187;28;20490;-71
2022/08/19 07:53:12;;;;;;;6.00;5.40;;;;;;;30.45;48.87;100042.91;5075732;28;20537;-70
2022/08/19 07:55:39;;;;;;;7.97;4.97;;;;;;;30.50;47.75;100043.97;5076232;28;20435;-68
2022/08/19 07:58:07;;;;;;;5.23;4.83;;;;;;;30.37;48.03;100056.97;5075683;28;20439;-71
2022/08/19 08:00:35;;;;;;;5.17;4.67;;;;;;;30.40;47.12;100048.25;5076387;28;20441;-69
2022/08/19 08:03:01;;;;;;;5.83;5.33;;;;;;;30.83;46.24;100057.13;5075892;28;20447;-66
2022/08/19 08:10:57;;;;;;;6.93;6.03;;;;;;;31.67;43.80;100050.16;5069348;28;20453;-70
2022/08/19 08:13:25;;;;;;;5.20;4.70;;;;;;;32.18;42.85;100051.38;5072223;28;20474;-69
2022/08/19 08:15:51;;;;;;;6.00;5.00;;;;;;;32.36;42.33;100054.28;5073286;28;20480;-67
2022/08/19 08:18:18;;;;;;;5.83;5.00;;;;;;;32.80;41.06;100052.56;5072764;28;20473;-69
2022/08/19 08:20:45;;;;;;;4.60;4.20;;;;;;;32.97;41.03;100055.69;5074874;28;20798;-68
2022/08/19 08:23:25;;;;;;;5.93;4.90;;;;;;;33.78;39.60;100051.19;5074411;28;20441;-71
2022/08/19 08:25:52;;;;;;;7.50;5.10;;;;;;;34.34;38.57;100056.84;5074203;28;20431;-68
2022/08/19 08:28:20;;;;;;;5.93;5.03;;;;;;;35.28;36.98;100066.50;5055040;28;20484;-69
2022/08/19 08:30:49;;;;;;;257.87;234.23;;;;;;;35.14;36.78;100064.16;5073790;28;20847;-70
2022/08/19 08:33:19;;;;;;;66.10;60.40;;;;;;;35.03;36.87;100061.06;5075298;28;20556;-69
2022/08/19 08:35:46;;;;;;;31.80;29.10;;;;;;;35.84;35.99;100072.69;5076241;28;20426;-70
2022/08/19 08:38:14;;;;;;;7.13;6.53;;;;;;;35.49;35.97;100069.81;5073227;28;20458;-71
2022/08/19 08:40:46;;;;;;;5.93;5.40;;;;;;;35.39;35.88;100070.44;5075028;28;20435;-68
2022/08/19 08:43:22;;;;;;;6.17;5.57;;;;;;;34.68;36.94;100058.97;5075368;28;20423;-70
2022/08/19 08:45:56;;;;;;;5.70;5.20;;;;;;;34.03;38.22;100062.34;5072964;28;20815;-68
2022/08/19 08:48:31;;;;;;;6.47;5.87;;;;;;;34.15;38.45;100073.63;5074156;28;20447;-69
2022/08/19 08:50:59;;;;;;;5.63;4.73;;;;;;;34.93;37.22;100071.13;5071498;28;20974;-69
2022/08/19 08:53:27;;;;;;;5.43;5.03;;;;;;;35.79;36.08;100077.28;5074871;28;20453;-69
2022/08/19 08:55:53;;;;;;;5.60;5.20;;;;;;;36.35;34.89;100077.75;5072252;28;20459;-71
2022/08/19 08:58:30;;;;;;;5.77;5.27;;;;;;;37.14;33.61;100069.56;5077074;28;20439;-75
2022/08/19 09:00:58;;;;;;;7.10;5.37;;;;;;;37.65;32.58;100064.84;5075607;28;20526;-69
2022/08/19 09:03:27;;;;;;;5.10;4.60;;;;;;;37.97;32.63;100062.22;5073735;28;20463;-71
2022/08/19 09:06:01;;;;;;;5.00;4.50;;;;;;;38.15;31.48;100063.91;5074128;28;20453;-70
2022/08/19 09:08:40;;;;;;;5.80;4.70;;;;;;;38.98;30.92;100060.16;5074056;28;20900;-71
2022/08/19 09:11:10;;;;;;;4.00;3.70;;;;;;;39.16;29.57;100054.16;5072086;28;20482;-71
2022/08/19 09:13:47;;;;;;;4.60;4.20;;;;;;;38.99;30.06;100056.25;5068356;28;20450;-71
2022/08/19 09:16:18;;;;;;;4.63;4.23;;;;;;;40.08;29.67;100061.66;5075695;28;21069;-72
2022/08/19 09:18:48;;;;;;;4.30;3.90;;;;;;;40.52;28.46;100056.50;5074593;28;20422;-70
2022/08/19 09:21:15;;;;;;;4.40;4.00;;;;;;;39.73;29.00;100055.47;5075360;28;20445;-72
2022/08/19 09:23:43;;;;;;;4.40;4.10;;;;;;;38.11;30.68;100045.03;5074861;28;20453;-72
2022/08/19 09:26:13;;;;;;;4.47;4.07;;;;;;;36.55;33.01;100035.28;5074453;28;20473;-70
2022/08/19 09:28:41;;;;;;;4.10;3.80;;;;;;;35.32;34.85;100033.28;5070249;28;20455;-72
2022/08/19 09:31:07;;;;;;;5.23;4.70;;;;;;;34.40;35.87;100034.41;5069823;28;20474;-69
2022/08/19 09:33:35;;;;;;;4.57;3.90;;;;;;;34.44;36.34;100035.63;5055600;28;20457;-69
2022/08/19 09:36:06;;;;;;;5.10;4.70;;;;;;;34.46;36.16;100040.97;5074065;28;21071;-70
2022/08/19 09:38:33;;;;;;;5.80;4.93;;;;;;;34.60;36.35;100038.84;5075824;28;20466;-70
2022/08/19 09:41:04;;;;;;;9.03;5.20;;;;;;;32.92;38.88;100041.56;5071667;28;20455;-69
2022/08/19 09:43:31;;;;;;;5.70;5.20;;;;;;;32.43;39.74;100048.69;5070744;28;20459;-69
2022/08/19 09:45:58;;;;;;;5.70;5.17;;;;;;;31.85;40.93;100046.69;5072081;28;20980;-69
2022/08/19 09:48:24;;;;;;;6.57;5.13;;;;;;;31.76;41.20;100046.06;5072381;28;20964;-69
2022/08/19 09:50:52;;;;;;;5.60;4.60;;;;;;;34.35;36.92;100036.16;5073192;28;20857;-70
2022/08/19 09:53:22;;;;;;;5.70;5.20;;;;;;;36.60;33.00;100039.03;5072306;28;20459;-70
2022/08/19 09:55:49;;;;;;;6.30;5.40;;;;;;;38.30;31.25;100037.94;5071856;28;20477;-69
2022/08/19 09:58:15;;;;;;;6.13;5.63;;;;;;;37.80;31.35;100033.31;5072251;28;20463;-70
2022/08/19 10:00:42;;;;;;;7.33;5.20;;;;;;;36.20;33.93;100031.44;5071435;28;20463;-69
2022/08/19 10:03:09;;;;;;;5.10;4.70;;;;;;;36.05;34.45;100037.56;5073550;28;20439;-69
2022/08/19 10:05:50;;;;;;;6.30;5.13;;;;;;;36.45;33.66;100035.91;5074279;28;20523;-71
2022/08/19 10:08:20;;;;;;;6.27;5.67;;;;;;;34.31;35.77;100029.38;5070792;28;20582;-69
2022/08/19 10:10:50;;;;;;;5.07;4.67;;;;;;;34.14;35.70;100035.56;5071899;28;20995;-71
2022/08/19 10:13:21;;;;;;;6.70;5.50;;;;;;;36.98;31.89;100039.47;5071524;28;20462;-70
2022/08/19 10:15:50;;;;;;;6.53;4.90;;;;;;;39.60;28.86;100044.69;5073481;28;20431;-68
2022/08/19 10:18:18;;;;;;;5.53;5.13;;;;;;;40.98;27.50;100041.72;5079106;22;20473;-70
2022/08/19 10:20:45;;;;;;;9.37;4.67;;;;;;;38.73;29.80;100044.69;5056947;28;20413;-70
2022/08/19 10:23:12;;;;;;;5.10;4.70;;;;;;;37.16;31.68;100039.28;5040235;28;20487;-73
2022/08/19 10:25:40;;;;;;;5.17;4.73;;;;;;;36.77;31.89;100035.44;5032785;28;20448;-71
2022/08/19 10:28:07;;;;;;;5.93;5.50;;;;;;;35.16;34.00;100033.97;5016556;28;20453;-70
2022/08/19 10:30:33;;;;;;;6.17;5.67;;;;;;;35.61;33.80;100031.47;5015006;28;21017;-73
2022/08/19 10:33:00;;;;;;;5.73;5.23;;;;;;;36.82;31.94;100032.75;5016150;28;20536;-72
2022/08/19 10:35:29;;;;;;;5.53;5.00;;;;;;;35.69;33.71;100030.28;5014685;28;20476;-71
2022/08/19 10:37:59;;;;;;;7.47;6.13;;;;;;;34.54;35.78;100023.88;5038049;28;20464;-70
2022/08/19 10:40:26;;;;;;;8.43;6.90;;;;;;;33.90;36.73;100016.91;5038024;28;20444;-72
2022/08/19 10:42:55;;;;;;;6.97;6.27;;;;;;;33.85;36.95;100009.22;5036642;28;20504;-71
2022/08/19 10:45:25;;;;;;;8.47;6.20;;;;;;;33.19;37.55;100016.28;5036550;28;20866;-71
2022/08/19 10:47:52;;;;;;;6.80;6.30;;;;;;;33.21;36.89;100022.50;5035793;28;20536;-71
2022/08/19 10:53:05;;;;;;;7.03;6.53;;;;;;;33.44;36.88;100014.38;5036324;28;20491;-72
2022/08/19 10:58:24;;;;;;;6.97;6.40;;;;;;;37.80;31.03;100009.97;5038848;28;20460;-72
2022/08/19 11:00:59;;;;;;;6.80;6.30;;;;;;;39.81;28.25;100023.97;5044925;28;20425;-72
2022/08/19 11:03:27;;;;;;;6.80;6.30;;;;;;;40.01;28.50;100019.59;5043179;28;20519;-72
2022/08/19 11:06:01;;;;;;;7.23;6.73;;;;;;;42.23;25.98;100016.75;5045556;28;20440;-71
2022/08/19 11:08:28;;;;;;;6.90;6.40;;;;;;;43.39;24.65;100013.47;5047418;28;20468;-72
2022/08/19 11:10:57;;;;;;;6.80;6.30;;;;;;;43.92;23.85;100009.88;5047773;28;20486;-71
2022/08/19 11:13:25;;;;;;;6.43;5.93;;;;;;;44.78;23.37;100009.03;5048234;28;20441;-71
2022/08/19 11:16:02;;;;;;;6.23;5.73;;;;;;;41.35;26.31;99990.63;5048311;28;20436;-71
2022/08/19 11:18:29;;;;;;;6.07;5.60;;;;;;;42.94;24.89;99997.69;5048254;28;20472;-71
2022/08/19 11:21:05;;;;;;;6.60;6.10;;;;;;;41.98;25.31;99995.91;5046815;28;20432;-71
2022/08/19 11:23:32;;;;;;;7.20;6.50;;;;;;;42.85;24.82;99989.81;5045083;28;20820;-70
2022/08/19 11:25:59;;;;;;;6.43;5.97;;;;;;;44.87;23.09;99990.19;5044234;28;20500;-70
2022/08/19 11:28:27;;;;;;;6.80;6.07;;;;;;;44.43;23.22;99980.88;5045528;28;20493;-73
2022/08/19 11:30:53;;;;;;;8.20;7.10;;;;;;;43.44;23.13;99967.25;5044974;28;20502;-73
2022/08/19 11:33:20;;;;;;;7.60;7.10;;;;;;;42.68;24.34;99961.91;5047114;28;20441;-70
2022/08/19 11:35:47;;;;;;;7.43;6.93;;;;;;;41.85;25.29;99951.25;5047510;28;20452;-71
2022/08/19 11:38:14;;;;;;;8.37;7.77;;;;;;;40.21;26.96;99954.00;5049538;28;20460;-71
2022/08/19 11:40:42;;;;;;;7.53;7.03;;;;;;;39.58;27.75;99948.31;5049596;28;20447;-70